createdAt,value
2022-11-07T00:00:58.316Z,15.07
2022-11-07T00:03:00.525Z,15.06
2022-11-07T00:05:03.604Z,15.04
2022-11-07T00:07:07.048Z,15.00
2022-11-07T00:09:10.491Z,15.02
2022-11-07T00:11:12.589Z,15.06
2022-11-07T00:13:14.744Z,15.08
2022-11-07T00:15:17.134Z,15.06
2022-11-07T00:17:19.412Z,15.04
2022-11-07T00:19:22.604Z,15.00
2022-11-07T00:21:24.894Z,15.01
2022-11-07T00:23:27.045Z,14.95
2022-11-07T00:25:29.239Z,14.94
2022-11-07T00:27:31.373Z,14.93
2022-11-07T00:29:33.550Z,14.91
2022-11-07T00:31:38.428Z,14.86
2022-11-07T00:34:43.068Z,14.77
2022-11-07T00:36:45.708Z,14.79
2022-11-07T00:38:47.955Z,14.74
2022-11-07T00:41:01.282Z,14.67
2022-11-07T00:43:03.283Z,14.71
2022-11-07T00:45:06.697Z,14.74
2022-11-07T00:47:08.774Z,14.71
2022-11-07T00:49:10.966Z,14.71
2022-11-07T00:51:14.088Z,14.58
2022-11-07T00:53:16.658Z,14.69
2022-11-07T00:55:18.956Z,14.64
2022-11-07T00:57:21.073Z,14.62
2022-11-07T00:59:23.095Z,14.58
2022-11-07T01:08:47.762Z,14.53
2022-11-07T01:10:49.758Z,14.53
2022-11-07T01:12:51.887Z,14.56
2022-11-07T01:14:53.864Z,14.46
2022-11-07T01:16:56.350Z,14.48
2022-11-07T01:18:58.646Z,14.47
2022-11-07T01:21:07.574Z,14.47
2022-11-07T01:23:12.002Z,14.47
2022-11-07T01:25:14.206Z,14.44
2022-11-07T01:27:27.663Z,14.45
2022-11-07T01:29:29.871Z,14.47
2022-11-07T01:31:32.151Z,14.50
2022-11-07T01:33:34.991Z,14.47
2022-11-07T01:35:37.451Z,14.44
2022-11-07T01:37:39.447Z,14.41
2022-11-07T01:39:41.420Z,14.42
2022-11-07T01:41:43.705Z,14.38
2022-11-07T01:43:51.630Z,14.32
2022-11-07T01:45:53.745Z,14.32
2022-11-07T01:48:01.038Z,14.34
2022-11-07T01:50:06.074Z,14.20
2022-11-07T01:52:29.731Z,14.29
2022-11-07T01:54:39.466Z,14.26
2022-11-07T01:56:44.417Z,14.27
2022-11-07T01:58:47.803Z,14.27
2022-11-07T02:00:50.035Z,14.30
2022-11-07T02:02:58.287Z,14.24
2022-11-07T02:05:02.926Z,14.28
2022-11-07T02:07:09.473Z,14.24
2022-11-07T02:09:11.970Z,14.24
2022-11-07T02:11:14.851Z,14.17
2022-11-07T02:13:29.281Z,14.18
2022-11-07T02:15:36.485Z,14.19
2022-11-07T02:17:38.998Z,14.22
2022-11-07T02:19:44.649Z,14.17
2022-11-07T02:21:59.110Z,14.11
2022-11-07T02:24:07.405Z,14.12
2022-11-07T02:26:09.759Z,14.13
2022-11-07T02:28:14.831Z,14.17
2022-11-07T02:30:22.664Z,14.10
2022-11-07T02:32:25.407Z,14.17
2022-11-07T02:34:27.496Z,14.12
2022-11-07T02:36:29.474Z,14.14
2022-11-07T02:38:35.231Z,14.14
2022-11-07T02:40:38.313Z,14.12
2022-11-07T02:42:46.678Z,14.10
2022-11-07T02:44:49.189Z,14.10
2022-11-07T02:46:51.457Z,14.07
2022-11-07T02:48:59.249Z,14.01
2022-11-07T02:51:01.397Z,14.08
2022-11-07T02:53:03.480Z,14.09
2022-11-07T02:55:07.746Z,14.17
2022-11-07T02:57:09.833Z,14.10
2022-11-07T02:59:11.908Z,14.02
2022-11-07T03:01:14.559Z,13.97
2022-11-07T03:03:17.278Z,14.05
2022-11-07T03:05:21.055Z,13.99
2022-11-07T03:07:23.161Z,13.94
2022-11-07T03:09:25.166Z,13.86
2022-11-07T03:11:27.453Z,13.86
2022-11-07T03:13:29.490Z,13.91
2022-11-07T03:15:31.631Z,13.88
2022-11-07T03:17:34.114Z,13.81
2022-11-07T03:19:36.258Z,13.84
2022-11-07T03:21:38.063Z,13.85
2022-11-07T03:23:40.413Z,13.82
2022-11-07T03:25:42.735Z,13.82
2022-11-07T03:27:51.125Z,13.84
2022-11-07T03:29:53.335Z,13.87
2022-11-07T03:31:55.400Z,13.83
2022-11-07T03:33:57.621Z,13.81
2022-11-07T03:35:59.840Z,13.75
2022-11-07T03:38:01.897Z,13.78
2022-11-07T03:40:04.784Z,13.81
2022-11-07T03:42:07.153Z,13.79
2022-11-07T03:44:12.054Z,13.80
2022-11-07T03:46:15.048Z,13.83
2022-11-07T03:48:17.556Z,13.78
2022-11-07T03:50:21.337Z,13.82
2022-11-07T03:52:23.455Z,13.84
2022-11-07T03:54:25.561Z,13.84
2022-11-07T03:56:27.853Z,13.86
2022-11-07T03:58:29.940Z,13.90
2022-11-07T04:00:32.234Z,13.93
2022-11-07T04:02:34.570Z,13.91
2022-11-07T04:04:37.284Z,13.89
2022-11-07T04:06:39.321Z,13.95
2022-11-07T04:08:41.716Z,14.00
2022-11-07T04:10:43.879Z,13.98
2022-11-07T04:13:04.290Z,13.94
2022-11-07T04:15:25.009Z,13.87
2022-11-07T04:17:28.430Z,13.83
2022-11-07T04:19:30.515Z,13.83
2022-11-07T04:21:32.405Z,13.81
2022-11-07T04:23:34.882Z,13.81
2022-11-07T04:25:55.471Z,13.79
2022-11-07T04:27:57.862Z,13.82
2022-11-07T04:30:19.302Z,13.77
2022-11-07T04:32:23.423Z,13.76
2022-11-07T04:34:25.349Z,13.78
2022-11-07T04:36:27.714Z,13.80
2022-11-07T04:38:29.792Z,13.77
2022-11-07T04:40:32.032Z,13.83
2022-11-07T04:42:34.374Z,13.80
2022-11-07T04:44:36.619Z,13.81
2022-11-07T04:46:38.617Z,13.80
2022-11-07T04:48:40.573Z,13.78
2022-11-07T04:50:43.072Z,13.75
2022-11-07T04:52:48.850Z,13.77
2022-11-07T04:54:51.119Z,13.76
2022-11-07T04:56:53.220Z,13.79
2022-11-07T04:58:55.567Z,13.79
2022-11-07T05:00:58.203Z,13.76
2022-11-07T05:03:00.833Z,13.72
2022-11-07T05:05:02.887Z,13.71
2022-11-07T05:07:05.210Z,13.68
2022-11-07T05:09:09.629Z,13.69
2022-11-07T05:11:12.321Z,13.69
2022-11-07T05:13:17.088Z,13.68
2022-11-07T05:15:19.747Z,13.69
2022-11-07T05:17:27.968Z,13.72
2022-11-07T05:19:30.410Z,13.74
2022-11-07T05:21:32.573Z,13.71
2022-11-07T05:23:34.902Z,13.71
2022-11-07T05:25:36.980Z,13.69
2022-11-07T05:27:39.271Z,13.68
2022-11-07T05:29:41.560Z,13.70
2022-11-07T05:31:44.046Z,13.73
2022-11-07T05:33:47.577Z,13.73
2022-11-07T05:35:49.626Z,13.78
2022-11-07T05:37:51.671Z,13.78
2022-11-07T05:39:55.140Z,13.79
2022-11-07T05:41:57.140Z,13.77
2022-11-07T05:43:59.081Z,13.78
2022-11-07T05:46:01.906Z,13.78
2022-11-07T05:48:07.130Z,13.68
2022-11-07T05:50:09.464Z,13.76
2022-11-07T05:52:11.493Z,13.81
2022-11-07T05:54:13.738Z,13.78
2022-11-07T05:56:15.839Z,13.83
2022-11-07T05:58:18.022Z,13.85
2022-11-07T06:00:20.473Z,13.80
2022-11-07T06:02:22.428Z,13.66
2022-11-07T06:04:24.605Z,13.71
2022-11-07T06:06:26.432Z,13.71
2022-11-07T06:08:28.445Z,13.74
2022-11-07T06:10:30.278Z,13.75
2022-11-07T06:12:32.366Z,13.81
2022-11-07T06:14:34.368Z,13.75
2022-11-07T06:16:36.529Z,13.72
2022-11-07T06:18:41.594Z,13.70
2022-11-07T06:20:44.144Z,13.70
2022-11-07T06:22:46.278Z,13.68
2022-11-07T06:24:48.399Z,13.67
2022-11-07T06:26:50.534Z,13.63
2022-11-07T06:28:52.959Z,13.68
2022-11-07T06:30:59.875Z,13.68
2022-11-07T06:33:06.462Z,13.73
2022-11-07T06:35:08.741Z,13.74
2022-11-07T06:37:10.494Z,13.72
2022-11-07T06:39:12.535Z,13.75
2022-11-07T06:41:15.281Z,13.79
2022-11-07T06:43:19.887Z,13.80
2022-11-07T06:45:22.380Z,13.82
2022-11-07T06:47:24.219Z,13.87
2022-11-07T06:49:26.179Z,13.86
2022-11-07T06:51:28.346Z,13.88
2022-11-07T06:53:30.537Z,13.93
2022-11-07T06:55:34.384Z,13.91
2022-11-07T06:57:36.183Z,13.88
2022-11-07T06:59:38.470Z,13.92
2022-11-07T07:01:40.569Z,13.94
2022-11-07T07:03:43.679Z,13.98
2022-11-07T07:05:45.489Z,14.01
2022-11-07T07:07:47.335Z,14.04
2022-11-07T07:09:49.180Z,14.08
2022-11-07T07:11:51.083Z,14.08
2022-11-07T07:13:53.093Z,14.06
2022-11-07T07:15:57.915Z,14.12
2022-11-07T07:18:01.204Z,14.09
2022-11-07T07:20:07.196Z,14.08
2022-11-07T07:22:13.881Z,14.10
2022-11-07T07:24:15.707Z,14.18
2022-11-07T07:26:17.754Z,14.24
2022-11-07T07:28:19.626Z,14.28
2022-11-07T07:30:21.445Z,14.35
2022-11-07T07:32:25.374Z,14.35
2022-11-07T07:34:27.152Z,14.42
2022-11-07T07:36:29.295Z,14.42
2022-11-07T07:38:31.693Z,14.40
2022-11-07T07:40:33.806Z,14.41
2022-11-07T07:42:41.277Z,14.48
2022-11-07T07:44:43.286Z,14.41
2022-11-07T07:46:46.958Z,14.42
2022-11-07T07:48:49.126Z,14.50
2022-11-07T07:50:51.061Z,14.50
2022-11-07T07:53:00.789Z,14.49
2022-11-07T07:55:09.127Z,14.54
2022-11-07T07:57:11.038Z,14.53
2022-11-07T07:59:12.977Z,14.52
2022-11-07T08:01:16.061Z,14.57
2022-11-07T08:03:18.324Z,14.56
2022-11-07T08:05:20.303Z,14.59
2022-11-07T08:07:22.196Z,14.58
2022-11-07T08:09:24.013Z,14.61
2022-11-07T08:11:25.962Z,14.64
2022-11-07T08:13:30.249Z,14.61
2022-11-07T08:15:32.220Z,14.63
2022-11-07T08:17:34.323Z,14.64
2022-11-07T08:19:36.677Z,14.70
2022-11-07T08:21:38.756Z,14.67
2022-11-07T08:23:40.839Z,14.68
2022-11-07T08:25:43.139Z,14.71
2022-11-07T08:27:45.104Z,14.76
2022-11-07T08:29:47.077Z,14.71
2022-11-07T08:31:50.799Z,14.70
2022-11-07T08:33:53.118Z,14.75
2022-11-07T08:36:00.830Z,14.73
2022-11-07T08:38:02.713Z,14.80
2022-11-07T08:40:05.118Z,14.84
2022-11-07T08:42:06.998Z,14.87
2022-11-07T08:44:10.119Z,14.87
2022-11-07T08:46:12.176Z,14.88
2022-11-07T08:48:15.429Z,14.88
2022-11-07T08:50:17.530Z,14.90
2022-11-07T08:52:19.820Z,14.94
2022-11-07T08:54:21.876Z,14.90
2022-11-07T08:56:23.851Z,14.90
2022-11-07T08:58:29.843Z,14.84
2022-11-07T09:00:32.645Z,14.89
2022-11-07T09:04:56.564Z,15.05
2022-11-07T09:06:58.450Z,15.11
2022-11-07T09:09:00.503Z,15.07
2022-11-07T09:11:04.262Z,15.05
2022-11-07T09:13:06.013Z,15.04
2022-11-07T09:15:08.483Z,15.09
2022-11-07T09:17:35.649Z,15.06
2022-11-07T09:19:37.650Z,15.12
2022-11-07T09:21:40.068Z,15.13
2022-11-07T09:23:42.062Z,15.20
2022-11-07T09:25:44.203Z,15.21
2022-11-07T09:27:47.429Z,15.22
2022-11-07T09:29:50.014Z,15.20
2022-11-07T09:31:51.882Z,15.22
2022-11-07T09:33:53.787Z,15.21
2022-11-07T09:35:59.679Z,15.25
2022-11-07T09:38:01.566Z,15.29
2022-11-07T09:40:04.180Z,15.25
2022-11-07T09:42:39.708Z,15.19
2022-11-07T09:44:57.587Z,15.23
2022-11-07T09:47:11.510Z,15.27
2022-11-07T09:49:42.565Z,15.31
2022-11-07T09:52:03.434Z,15.22
2022-11-07T09:54:11.576Z,15.25
2022-11-07T09:56:14.665Z,15.30
2022-11-07T09:58:38.191Z,15.23
2022-11-07T10:00:40.776Z,15.30
2022-11-07T10:02:51.241Z,15.35
2022-11-07T10:05:01.422Z,15.42
2022-11-07T10:07:32.630Z,15.41
2022-11-07T10:09:55.322Z,15.36
2022-11-07T10:12:00.271Z,15.38
2022-11-07T10:14:13.390Z,15.28
2022-11-07T10:16:24.007Z,15.28
2022-11-07T10:18:34.798Z,15.35
2022-11-07T10:21:16.191Z,15.37
2022-11-07T10:23:41.565Z,15.31
2022-11-07T10:25:55.209Z,15.35
2022-11-07T10:28:13.342Z,15.31
2022-11-07T10:30:19.080Z,15.41
2022-11-07T10:32:23.348Z,15.35
2022-11-07T10:34:43.100Z,15.31
2022-11-07T10:36:45.097Z,15.37
2022-11-07T10:38:47.042Z,15.37
2022-11-07T10:40:54.274Z,15.42
2022-11-07T10:42:57.767Z,15.38
2022-11-07T10:45:02.794Z,15.38
2022-11-07T10:47:15.969Z,15.33
2022-11-07T10:49:32.650Z,15.35
2022-11-07T10:51:40.409Z,15.34
2022-11-07T10:53:48.121Z,15.35
2022-11-07T10:55:52.370Z,15.40
2022-11-07T10:58:04.350Z,15.36
2022-11-07T11:00:23.144Z,15.30
2022-11-07T11:02:27.106Z,15.43
2022-11-07T11:04:32.695Z,15.38
2022-11-07T11:06:34.656Z,15.44
2022-11-07T11:08:38.579Z,15.42
2022-11-07T11:10:40.898Z,15.38
2022-11-07T11:12:46.384Z,15.37
2022-11-07T11:14:49.885Z,15.42
2022-11-07T11:16:56.554Z,15.37
2022-11-07T11:19:01.218Z,15.36
2022-11-07T11:21:40.713Z,15.29
2022-11-07T11:23:45.395Z,15.36
2022-11-07T11:25:50.295Z,15.38
2022-11-07T11:28:02.818Z,15.37
2022-11-07T11:30:20.674Z,15.36
2022-11-07T11:32:35.442Z,15.39
2022-11-07T11:34:40.503Z,15.44
2022-11-07T11:36:54.131Z,15.43
2022-11-07T11:38:56.537Z,15.47
2022-11-07T11:41:11.260Z,15.40
2022-11-07T11:43:46.786Z,15.35
2022-11-07T11:46:07.837Z,15.39
2022-11-07T11:48:23.763Z,15.44
2022-11-07T11:53:55.620Z,15.44
2022-11-07T11:56:11.659Z,15.41
2022-11-07T11:58:39.889Z,15.48
2022-11-07T12:00:54.488Z,15.41
2022-11-07T12:03:15.475Z,15.31
2022-11-07T12:05:38.915Z,15.43
2022-11-07T12:07:52.338Z,15.45
2022-11-07T12:09:59.934Z,15.39
2022-11-07T12:12:08.784Z,15.43
2022-11-07T12:14:29.497Z,15.40
2022-11-07T12:17:00.867Z,15.37
2022-11-07T12:19:21.343Z,15.43
2022-11-07T12:21:44.657Z,15.38
2022-11-07T12:24:16.836Z,15.41
2022-11-07T12:26:24.571Z,15.54
2022-11-07T12:29:05.687Z,15.43
2022-11-07T12:31:36.249Z,15.49
2022-11-07T12:34:40.526Z,15.46
2022-11-07T12:37:07.864Z,15.44
2022-11-07T12:39:29.656Z,15.48
2022-11-07T12:41:47.251Z,15.48
2022-11-07T12:44:20.042Z,15.43
2022-11-07T12:46:43.836Z,15.54
2022-11-07T12:49:23.016Z,15.49
2022-11-07T12:51:31.690Z,15.44
2022-11-07T12:53:39.295Z,15.44
2022-11-07T12:56:13.380Z,15.42
2022-11-07T12:58:25.707Z,15.45
2022-11-07T13:00:30.407Z,15.48
2022-11-07T13:03:04.775Z,15.46
2022-11-07T13:05:24.814Z,15.42
2022-11-07T13:08:02.174Z,15.55
2022-11-07T13:10:24.150Z,15.52
2022-11-07T13:12:35.377Z,15.52
2022-11-07T13:14:42.640Z,15.51
2022-11-07T13:16:58.008Z,15.54
2022-11-07T13:19:31.313Z,15.53
2022-11-07T13:21:44.458Z,15.52
2022-11-07T13:23:47.733Z,15.52
2022-11-07T13:25:59.069Z,15.41
2022-11-07T13:28:02.607Z,15.50
2022-11-07T13:30:13.548Z,15.52
2022-11-07T13:32:16.986Z,15.52
2022-11-07T13:34:18.992Z,15.49
2022-11-07T13:36:28.981Z,15.47
2022-11-07T13:38:32.076Z,15.48
2022-11-07T13:40:35.909Z,15.46
2022-11-07T13:42:40.383Z,15.51
2022-11-07T13:44:43.790Z,15.51
2022-11-07T13:46:51.393Z,15.50
2022-11-07T13:48:58.161Z,15.46
2022-11-07T13:51:06.150Z,15.46
2022-11-07T13:53:19.702Z,15.47
2022-11-07T13:55:25.801Z,15.49
2022-11-07T13:57:34.396Z,15.51
2022-11-07T13:59:52.804Z,15.50
2022-11-07T14:01:57.341Z,15.48
2022-11-07T14:03:59.466Z,15.47
2022-11-07T14:06:02.753Z,15.49
2022-11-07T14:08:08.343Z,15.48
2022-11-07T14:10:39.030Z,15.47
2022-11-07T14:12:40.962Z,15.48
2022-11-07T14:14:43.354Z,15.46
2022-11-07T14:16:46.552Z,15.48
2022-11-07T14:18:51.974Z,15.48
2022-11-07T14:20:57.129Z,15.50
2022-11-07T14:23:00.830Z,15.41
2022-11-07T14:25:03.266Z,15.44
2022-11-07T14:27:07.523Z,15.49
2022-11-07T14:29:22.064Z,15.42
2022-11-07T14:31:29.464Z,15.48
2022-11-07T14:33:31.893Z,15.52
2022-11-07T14:35:35.478Z,15.45
2022-11-07T14:37:37.709Z,15.48
2022-11-07T14:39:39.778Z,15.46
2022-11-07T14:41:43.200Z,15.46
2022-11-07T14:43:56.457Z,15.39
2022-11-07T14:46:12.499Z,15.38
2022-11-07T14:48:20.192Z,15.28
2022-11-07T14:50:28.020Z,15.36
2022-11-07T14:52:36.418Z,15.37
2022-11-07T14:54:41.965Z,15.42
2022-11-07T14:56:47.860Z,15.39
2022-11-07T14:58:50.361Z,15.44
2022-11-07T15:00:58.443Z,15.40
2022-11-07T15:03:01.035Z,15.42
2022-11-07T15:05:10.623Z,15.40
2022-11-07T15:07:29.896Z,15.35
2022-11-07T15:09:36.177Z,15.45
2022-11-07T15:11:54.727Z,15.43
2022-11-07T15:13:58.577Z,15.46
2022-11-07T15:16:15.570Z,15.41
2022-11-07T15:18:26.950Z,15.49
2022-11-07T15:20:33.679Z,15.48
2022-11-07T15:22:39.638Z,15.51
2022-11-07T15:24:44.219Z,15.36
2022-11-07T15:26:46.442Z,15.43
2022-11-07T15:28:53.109Z,15.35
2022-11-07T15:31:00.038Z,15.40
2022-11-07T15:33:02.268Z,15.35
2022-11-07T15:35:43.633Z,15.27
2022-11-07T15:37:37.501Z,15.31
2022-11-07T15:39:39.606Z,15.34
2022-11-07T15:41:41.633Z,15.32
2022-11-07T15:43:44.359Z,15.39
2022-11-07T15:45:48.216Z,15.38
2022-11-07T15:47:51.092Z,15.39
2022-11-07T15:49:53.192Z,15.38
2022-11-07T15:51:55.419Z,15.39
2022-11-07T15:53:57.784Z,15.39
2022-11-07T15:56:01.668Z,15.42
2022-11-07T15:58:03.851Z,15.44
2022-11-07T16:00:06.545Z,15.43
2022-11-07T16:02:17.376Z,15.40
2022-11-07T16:04:19.675Z,15.41
2022-11-07T16:06:29.201Z,15.43
2022-11-07T16:08:31.430Z,15.43
2022-11-07T16:10:33.810Z,15.40
2022-11-07T16:12:36.016Z,15.39
2022-11-07T16:14:43.848Z,15.40
2022-11-07T16:16:48.579Z,15.38
2022-11-07T16:18:53.425Z,15.34
2022-11-07T16:20:55.493Z,15.36
2022-11-07T16:22:57.417Z,15.39
2022-11-07T16:24:59.514Z,15.40
2022-11-07T16:27:01.892Z,15.40
2022-11-07T16:29:04.118Z,15.40
2022-11-07T16:31:06.228Z,15.42
2022-11-07T16:33:11.161Z,15.41
2022-11-07T16:35:13.559Z,15.41
2022-11-07T16:37:15.994Z,15.43
2022-11-07T16:39:23.467Z,15.41
2022-11-07T16:41:25.707Z,15.42
2022-11-07T16:43:27.883Z,15.41
2022-11-07T16:45:29.868Z,15.40
2022-11-07T16:47:32.798Z,15.41
2022-11-07T16:49:34.790Z,15.43
2022-11-07T16:51:36.860Z,15.38
2022-11-07T16:53:38.769Z,15.41
2022-11-07T16:55:47.181Z,15.32
2022-11-07T16:57:51.558Z,15.36
2022-11-07T16:59:53.706Z,15.36
2022-11-07T17:01:55.934Z,15.39
2022-11-07T17:03:57.913Z,15.40
2022-11-07T17:06:02.429Z,15.36
2022-11-07T17:08:14.709Z,15.40
2022-11-07T17:10:17.883Z,15.40
2022-11-07T17:12:22.830Z,15.38
2022-11-07T17:14:24.871Z,15.41
2022-11-07T17:16:30.080Z,15.39
2022-11-07T17:18:34.666Z,15.39
2022-11-07T17:20:52.487Z,15.41
2022-11-07T17:22:54.779Z,15.41
2022-11-07T17:24:56.788Z,15.40
2022-11-07T17:26:59.403Z,15.41
2022-11-07T17:29:02.224Z,15.40
2022-11-07T17:31:04.571Z,15.36
2022-11-07T17:33:06.651Z,15.38
2022-11-07T17:35:31.146Z,15.40
2022-11-07T17:37:31.511Z,15.38
2022-11-07T17:39:33.859Z,15.37
2022-11-07T17:41:35.950Z,15.38
2022-11-07T17:43:38.036Z,15.41
2022-11-07T17:45:40.953Z,15.41
2022-11-07T17:47:43.158Z,15.39
2022-11-07T17:49:46.307Z,15.41
2022-11-07T17:51:48.423Z,15.40
2022-11-07T17:53:50.691Z,15.43
2022-11-07T17:55:52.758Z,15.31
2022-11-07T17:57:54.980Z,15.33
2022-11-07T17:59:57.008Z,15.39
2022-11-07T18:05:53.631Z,15.36
2022-11-07T18:07:55.553Z,15.33
2022-11-07T18:09:57.588Z,15.34
2022-11-07T18:13:14.862Z,15.29
2022-11-07T18:15:17.042Z,15.31
2022-11-07T18:17:44.184Z,15.30
2022-11-07T18:19:47.963Z,15.31
2022-11-07T18:21:50.011Z,15.33
2022-11-07T18:23:52.210Z,15.35
2022-11-07T18:26:20.628Z,15.34
2022-11-07T18:28:22.758Z,15.39
2022-11-07T18:30:24.859Z,15.41
2022-11-07T18:32:29.257Z,15.38
2022-11-07T18:34:35.060Z,15.38
2022-11-07T18:36:38.673Z,15.37
2022-11-07T18:38:40.802Z,15.37
2022-11-07T18:40:42.635Z,15.34
2022-11-07T18:42:46.196Z,15.38
2022-11-07T18:44:48.265Z,15.33
2022-11-07T18:46:50.818Z,15.40
2022-11-07T18:48:52.806Z,15.38
2022-11-07T18:50:57.209Z,15.42
2022-11-07T18:53:01.599Z,15.39
2022-11-07T18:55:04.218Z,15.38
2022-11-07T18:57:06.594Z,15.38
2022-11-07T18:59:08.772Z,15.37
2022-11-07T19:01:15.400Z,15.39
2022-11-07T19:03:18.036Z,15.37
2022-11-07T19:05:20.644Z,15.35
2022-11-07T19:07:22.597Z,15.38
2022-11-07T19:09:27.225Z,15.35
2022-11-07T19:11:31.354Z,15.38
2022-11-07T19:13:38.925Z,15.40
2022-11-07T19:15:40.919Z,15.42
2022-11-07T19:17:43.067Z,15.40
2022-11-07T19:19:45.340Z,15.41
2022-11-07T19:21:47.403Z,15.41
2022-11-07T19:23:53.404Z,15.42
2022-11-07T19:25:55.928Z,15.44
2022-11-07T19:27:58.640Z,15.45
2022-11-07T19:31:03.874Z,15.36
2022-11-07T19:33:08.295Z,15.43
2022-11-07T19:35:10.655Z,15.44
2022-11-07T19:37:12.959Z,15.42
2022-11-07T19:39:15.201Z,15.39
2022-11-07T19:41:18.040Z,15.38
2022-11-07T19:43:20.353Z,15.39
2022-11-07T19:45:26.546Z,15.40
2022-11-07T19:47:30.974Z,15.39
2022-11-07T19:49:33.203Z,15.40
2022-11-07T19:51:36.524Z,15.40
2022-11-07T19:53:38.878Z,15.40
2022-11-07T19:55:41.085Z,15.40
2022-11-07T19:57:43.165Z,15.42
2022-11-07T19:59:45.177Z,15.35
2022-11-07T20:02:04.207Z,15.36
2022-11-07T20:04:09.124Z,15.39
2022-11-07T20:06:13.408Z,15.39
2022-11-07T20:08:17.757Z,15.38
2022-11-07T20:10:20.538Z,15.40
2022-11-07T20:12:22.753Z,15.39
2022-11-07T20:14:25.319Z,15.40
2022-11-07T20:16:27.819Z,15.40
2022-11-07T20:18:55.276Z,15.32
2022-11-07T20:21:06.585Z,15.36
2022-11-07T20:23:10.203Z,15.37
2022-11-07T20:25:12.545Z,15.41
2022-11-07T20:27:14.922Z,15.33
2022-11-07T20:29:18.656Z,15.33
2022-11-07T20:31:24.169Z,15.34
2022-11-07T20:33:26.128Z,15.41
2022-11-07T20:35:28.107Z,15.46
2022-11-07T20:37:30.296Z,15.48
2022-11-07T20:39:32.493Z,15.46
2022-11-07T20:41:35.112Z,15.46
2022-11-07T20:43:37.659Z,15.45
2022-11-07T20:45:39.557Z,15.43
2022-11-07T20:47:41.808Z,15.41
2022-11-07T20:49:43.824Z,15.40
2022-11-07T20:51:45.859Z,15.38
2022-11-07T20:53:50.307Z,15.38
2022-11-07T20:55:52.699Z,15.37
2022-11-07T20:58:19.617Z,15.30
2022-11-07T21:00:22.197Z,15.34
2022-11-07T21:02:24.448Z,15.31
2022-11-07T21:04:26.559Z,15.33
2022-11-07T21:06:28.601Z,15.35
2022-11-07T21:08:37.222Z,15.32
2022-11-07T21:10:39.656Z,15.33
2022-11-07T21:12:42.920Z,15.33
2022-11-07T21:14:45.469Z,15.32
2022-11-07T21:16:47.508Z,15.28
2022-11-07T21:18:50.626Z,15.29
2022-11-07T21:20:52.900Z,15.30
2022-11-07T21:22:55.135Z,15.29
2022-11-07T21:24:57.470Z,15.28
2022-11-07T21:26:59.578Z,15.25
2022-11-07T21:29:03.658Z,15.32
2022-11-07T21:31:08.167Z,15.29
2022-11-07T21:33:10.359Z,15.28
2022-11-07T21:35:14.288Z,15.29
2022-11-07T21:37:16.548Z,15.31
2022-11-07T21:39:21.119Z,15.30
2022-11-07T21:41:25.596Z,15.33
2022-11-07T21:43:27.547Z,15.34
2022-11-07T21:45:29.519Z,15.31
2022-11-07T21:47:31.775Z,15.31
2022-11-07T21:49:33.793Z,15.25
2022-11-07T21:52:26.254Z,15.20
2022-11-07T21:54:28.498Z,15.31
2022-11-07T21:56:32.975Z,15.32
2022-11-07T21:58:35.384Z,15.31
2022-11-07T22:00:39.288Z,15.29
2022-11-07T22:02:41.382Z,15.32
2022-11-07T22:04:43.459Z,15.31
2022-11-07T22:06:45.971Z,15.30
2022-11-07T22:08:49.936Z,15.27
2022-11-07T22:10:51.864Z,15.28
2022-11-07T22:12:54.134Z,15.30
2022-11-07T22:14:56.421Z,15.21
2022-11-07T22:16:58.386Z,15.26
2022-11-07T22:19:00.675Z,15.22
2022-11-07T22:21:04.948Z,15.24
2022-11-07T22:23:06.900Z,15.29
2022-11-07T22:25:09.136Z,15.27
2022-11-07T22:27:11.250Z,15.29
2022-11-07T22:29:13.378Z,15.29
2022-11-07T22:31:23.286Z,15.29
2022-11-07T22:33:25.585Z,15.25
2022-11-07T22:35:27.811Z,15.21
2022-11-07T22:37:31.363Z,15.18
2022-11-07T22:39:33.516Z,15.20
2022-11-07T22:41:35.931Z,15.16
2022-11-07T22:43:38.416Z,15.14
2022-11-07T22:45:44.292Z,15.17
2022-11-07T22:47:46.382Z,15.14
2022-11-07T22:49:48.623Z,15.13
2022-11-07T22:51:50.774Z,15.14
2022-11-07T22:53:57.911Z,15.15
2022-11-07T22:56:06.403Z,15.18
2022-11-07T22:58:08.606Z,15.10
2022-11-07T23:00:21.429Z,15.15
2022-11-07T23:02:24.259Z,15.12
2022-11-07T23:04:31.512Z,15.13
2022-11-07T23:06:34.869Z,15.13
2022-11-07T23:08:37.681Z,15.14
2022-11-07T23:10:40.001Z,15.11
2022-11-07T23:12:42.103Z,15.11
2022-11-07T23:14:46.643Z,15.12
2022-11-07T23:16:53.503Z,15.12
2022-11-07T23:18:58.622Z,15.12
2022-11-07T23:24:51.612Z,15.08
2022-11-07T23:26:53.674Z,15.08
2022-11-07T23:28:56.452Z,15.11
2022-11-07T23:30:58.557Z,15.08
2022-11-07T23:33:00.519Z,15.07
2022-11-07T23:35:02.745Z,15.10
2022-11-07T23:37:13.989Z,15.09
2022-11-07T23:39:20.323Z,15.08
2022-11-07T23:41:22.453Z,15.09
2022-11-07T23:43:24.652Z,15.08
2022-11-07T23:45:45.837Z,15.07
2022-11-07T23:48:06.640Z,15.08
2022-11-07T23:50:28.009Z,15.07
2022-11-07T23:52:30.026Z,15.07
2022-11-07T23:54:50.741Z,15.07
2022-11-07T23:56:52.639Z,15.06
2022-11-07T23:59:14.120Z,15.02
